Time;durP1;ratioP1;P1;durP2;ratioP2;P2;SDS_P1;SDS_P2;PMS_P1;PMS_P2;Temp;Humidity;BMP_temperature;BMP_pressure;BME280_temperature;BME280_humidity;BME280_pressure;Samples;Min_cycle;Max_cycle;Signal;HPM_P1;HPM_P2
2022/04/03 00:00:09;;;;;;;;;;;1.70;99.90;2.30;99547.00;;;;338848;28;91634;-88
2022/04/03 00:00:21;;;;;;;;;;;1.60;99.90;2.20;99552.00;;;;340684;28;83478;-89
2022/04/03 00:00:34;;;;;;;;;;;1.70;99.90;2.20;99547.00;;;;340185;28;87715;-89
2022/04/03 00:00:45;;;;;;;;;;;1.60;99.90;2.20;99544.00;;;;337994;28;82595;-90
2022/04/03 00:00:58;;;;;;;;;;;1.60;99.90;2.20;99560.00;;;;337624;28;91428;-90
2022/04/03 00:01:10;;;;;;;;;;;1.60;99.90;2.20;99543.00;;;;339461;28;82504;-89
2022/04/03 00:01:22;;;;;;;;;;;1.60;99.90;2.20;99546.00;;;;338787;28;91568;-89
2022/04/03 00:01:34;;;;;;;;;;;1.60;99.90;2.20;99546.00;;;;340397;28;83510;-89
2022/04/03 00:01:46;;;;;;;;;;;1.60;99.90;2.20;99532.00;;;;338931;28;91732;-89
2022/04/03 00:01:58;;;;;;;;;;;1.60;99.90;2.20;99542.00;;;;340494;28;83559;-89
2022/04/03 00:02:11;;;;;;;;;;;1.60;99.90;2.20;99548.00;;;;340319;28;89962;-89
2022/04/03 00:02:24;;;;;;;;;;;1.60;99.90;2.20;99540.00;;;;340788;28;83525;-89
2022/04/03 00:02:36;;;;;;;;;;;1.60;99.90;2.20;99554.00;;;;338833;28;90398;-89
2022/04/03 00:02:48;;;;;;;;;;;1.60;99.90;2.20;99546.00;;;;339308;28;82576;-89
2022/04/03 00:03:00;;;;;;;;;;;1.60;99.90;2.20;99541.00;;;;338934;28;90631;-89
2022/04/03 00:03:12;;;;;;;;;;;1.60;99.90;2.20;99545.00;;;;337914;28;83466;-89
2022/04/03 00:03:24;;;;;;;;;;;1.60;99.90;2.20;99541.00;;;;337286;28;91527;-89
2022/04/03 00:03:36;;;;;;;;;;;1.60;99.90;2.10;99542.00;;;;341595;28;82710;-89
2022/04/03 00:03:48;;;;;;;;;;;1.60;99.90;2.20;99545.00;;;;338826;28;90433;-89
2022/04/03 00:04:00;;;;;;;;;;;1.60;99.90;2.10;99548.00;;;;338215;28;83464;-89
2022/04/03 00:04:14;;;;;;;;;;;1.60;99.90;2.20;99545.00;;;;337731;28;91854;-90
2022/04/03 00:04:26;;;;;;;;;;;1.60;99.90;2.20;99545.00;;;;336678;28;83372;-89
2022/04/03 00:04:37;;;;;;;;;;;1.50;99.90;2.20;99548.00;;;;338376;28;91223;-89
2022/04/03 00:04:49;;;;;;;;;;;1.60;99.90;2.20;99543.00;;;;339246;28;82563;-89
2022/04/03 00:05:01;;;;;;;;;;;1.60;99.90;2.10;99547.00;;;;337282;28;91671;-89
2022/04/03 00:05:13;;;;;;;;;;;1.60;99.90;2.10;99547.00;;;;339271;28;83465;-88
2022/04/03 00:05:24;;;;;;;;;;;1.50;99.90;2.10;99550.00;;;;338578;28;92171;-89
2022/04/03 00:05:41;;;;;;;;;;;1.50;99.90;2.00;99542.00;;;;340652;28;83463;-89
2022/04/03 00:05:53;;;;;;;;;;;1.50;99.90;2.10;99547.00;;;;340150;28;90555;-89
2022/04/03 00:06:05;;;;;;;;;;;1.50;99.90;2.10;99550.00;;;;339204;28;83485;-89
2022/04/03 00:06:18;;;;;;;;;;;1.50;99.90;2.10;99544.00;;;;341455;28;90628;-89
2022/04/03 00:06:30;;;;;;;;;;;1.50;99.90;2.20;99550.00;;;;338974;28;83509;-89
2022/04/03 00:06:41;;;;;;;;;;;1.50;99.90;2.20;99552.00;;;;338348;28;91190;-89
2022/04/03 00:06:54;;;;;;;;;;;1.50;99.90;2.20;99550.00;;;;339257;28;83520;-89
2022/04/03 00:07:06;;;;;;;;;;;1.50;99.90;2.10;99552.00;;;;338684;28;90156;-90
2022/04/03 00:07:18;;;;;;;;;;;1.50;99.90;2.10;99549.00;;;;338451;28;83435;-90
2022/04/03 00:07:29;;;;;;;;;;;1.50;99.90;2.10;99554.00;;;;339730;28;91459;-90
2022/04/03 00:07:41;;;;;;;;;;;1.50;99.90;2.10;99529.00;;;;338744;28;83497;-89
2022/04/03 00:07:54;;;;;;;;;;;1.50;99.90;2.10;99543.00;;;;339596;28;90282;-90
2022/04/03 00:08:06;;;;;;;;;;;1.50;99.90;2.00;99544.00;;;;340026;28;82439;-89
2022/04/03 00:08:18;;;;;;;;;;;1.50;99.90;2.00;99542.00;;;;338562;28;90481;-89
2022/04/03 00:08:31;;;;;;;;;;;1.50;99.90;2.10;99546.00;;;;337720;28;83562;-90
2022/04/03 00:08:43;;;;;;;;;;;1.40;99.90;2.10;99542.00;;;;338207;28;90672;-90
2022/04/03 00:08:56;;;;;;;;;;;1.40;99.90;2.10;99539.00;;;;342617;28;82515;-89
2022/04/03 00:09:08;;;;;;;;;;;1.50;99.90;2.10;99544.00;;;;341180;28;90301;-89
2022/04/03 00:09:20;;;;;;;;;;;1.40;99.90;2.10;99543.00;;;;337263;28;82572;-88
2022/04/03 00:09:31;;;;;;;;;;;1.40;99.90;2.10;99544.00;;;;341815;28;92693;-89
2022/04/03 00:09:43;;;;;;;;;;;1.50;99.90;2.10;99540.00;;;;346877;28;82553;-90
2022/04/03 00:09:55;;;;;;;;;;;1.50;99.90;2.10;99542.00;;;;338384;28;91020;-88
2022/04/03 00:10:09;;;;;;;;;;;1.50;99.90;2.10;99543.00;;;;340316;28;82537;-89
2022/04/03 00:10:21;;;;;;;;;;;1.50;99.90;2.00;99540.00;;;;339674;28;90069;-90
2022/04/03 00:10:34;;;;;;;;;;;1.40;99.90;2.00;99538.00;;;;338731;28;83376;-89
2022/04/03 00:10:46;;;;;;;;;;;1.40;99.90;2.10;99548.00;;;;338309;28;91434;-89
2022/04/03 00:10:59;;;;;;;;;;;1.40;99.90;2.00;99551.00;;;;341513;28;83534;-88
2022/04/03 00:11:11;;;;;;;;;;;1.40;99.90;2.10;99536.00;;;;341043;28;90358;-89
2022/04/03 00:11:23;;;;;;;;;;;1.40;99.90;2.10;99540.00;;;;339952;28;82597;-89
2022/04/03 00:11:34;;;;;;;;;;;1.40;99.90;2.00;99539.00;;;;338133;28;91292;-90
2022/04/03 00:11:46;;;;;;;;;;;1.40;99.90;2.10;99539.00;;;;341554;28;82444;-89
2022/04/03 00:11:58;;;;;;;;;;;1.40;99.90;2.00;99544.00;;;;340938;28;90790;-89
2022/04/03 00:12:10;;;;;;;;;;;1.40;99.90;2.00;99544.00;;;;340163;28;82505;-89
2022/04/03 00:12:23;;;;;;;;;;;1.40;99.90;2.00;99532.00;;;;341157;28;90288;-89
2022/04/03 00:12:36;;;;;;;;;;;1.40;99.90;2.10;99542.00;;;;343287;28;85675;-89
2022/04/03 00:12:49;;;;;;;;;;;1.40;99.90;2.00;99545.00;;;;346972;28;90779;-88
2022/04/03 00:13:01;;;;;;;;;;;1.40;99.90;2.00;99538.00;;;;348114;27;82585;-88
2022/04/03 00:13:13;;;;;;;;;;;1.40;99.90;2.00;99534.00;;;;341167;28;90510;-89
2022/04/03 00:13:25;;;;;;;;;;;1.40;99.90;2.00;99542.00;;;;338777;28;83500;-88
2022/04/03 00:13:37;;;;;;;;;;;1.40;99.90;2.10;99549.00;;;;340879;28;92350;-89
2022/04/03 00:13:49;;;;;;;;;;;1.40;99.90;2.00;99535.00;;;;340012;28;82461;-90
2022/04/03 00:14:01;;;;;;;;;;;1.40;99.90;2.10;99528.00;;;;340964;28;87624;-90
2022/04/03 00:14:12;;;;;;;;;;;1.40;99.90;2.10;99539.00;;;;338672;28;82469;-89
2022/04/03 00:14:24;;;;;;;;;;;1.40;99.90;2.10;99538.00;;;;339603;28;90346;-89
2022/04/03 00:14:36;;;;;;;;;;;1.40;99.90;2.00;99541.00;;;;338697;28;83466;-89
2022/04/03 00:14:48;;;;;;;;;;;1.40;99.90;2.00;99537.00;;;;339540;28;91161;-90
2022/04/03 00:15:00;;;;;;;;;;;1.40;99.90;2.00;99540.00;;;;341488;28;83586;-90
2022/04/03 00:15:13;;;;;;;;;;;1.40;99.90;2.10;99536.00;;;;339582;28;87935;-89
2022/04/03 00:15:25;;;;;;;;;;;1.40;99.90;2.00;99526.00;;;;339962;28;83379;-89
2022/04/03 00:15:41;;;;;;;;;;;1.40;99.90;2.00;99530.00;;;;341989;28;92653;-89
2022/04/03 00:15:53;;;;;;;;;;;1.40;99.90;2.10;99545.00;;;;340012;28;82654;-88
2022/04/03 00:16:05;;;;;;;;;;;1.40;99.90;2.00;99535.00;;;;338903;28;90266;-89
2022/04/03 00:16:18;;;;;;;;;;;1.40;99.90;2.00;99538.00;;;;339995;28;83424;-89
2022/04/03 00:16:32;;;;;;;;;;;1.40;99.90;2.00;99534.00;;;;339871;28;90684;-89
2022/04/03 00:16:44;;;;;;;;;;;1.30;99.90;2.00;99540.00;;;;340023;28;82567;-89
2022/04/03 00:16:56;;;;;;;;;;;1.40;99.90;2.00;99537.00;;;;338616;28;90485;-89
2022/04/03 00:17:08;;;;;;;;;;;1.40;99.90;2.00;99542.00;;;;338668;28;82407;-90
2022/04/03 00:17:20;;;;;;;;;;;1.30;99.90;2.10;99538.00;;;;339326;28;91318;-89
2022/04/03 00:17:31;;;;;;;;;;;1.40;99.90;2.10;99538.00;;;;338453;28;83372;-89
2022/04/03 00:17:45;;;;;;;;;;;1.30;99.90;2.10;99535.00;;;;338029;28;91584;-89
2022/04/03 00:17:57;;;;;;;;;;;1.40;99.90;2.00;99537.00;;;;339984;28;83342;-89
2022/04/03 00:18:09;;;;;;;;;;;1.40;99.90;2.00;99536.00;;;;339466;28;90609;-89
2022/04/03 00:18:21;;;;;;;;;;;1.40;99.90;2.00;99539.00;;;;340175;28;82539;-89
2022/04/03 00:18:33;;;;;;;;;;;1.40;99.90;2.10;99545.00;;;;340665;28;90212;-89
2022/04/03 00:18:45;;;;;;;;;;;1.40;99.90;2.00;99538.00;;;;337656;28;82517;-89
2022/04/03 00:18:57;;;;;;;;;;;1.30;99.90;2.00;99548.00;;;;339592;28;90293;-89
2022/04/03 00:19:08;;;;;;;;;;;1.40;99.90;2.00;99537.00;;;;339714;28;83523;-90
2022/04/03 00:19:20;;;;;;;;;;;1.30;99.90;2.00;99535.00;;;;339264;28;92008;-89
2022/04/03 00:19:32;;;;;;;;;;;1.40;99.90;2.10;99536.00;;;;340201;28;83336;-89
2022/04/03 00:19:44;;;;;;;;;;;1.30;99.90;2.00;99530.00;;;;339451;28;91029;-89
2022/04/03 00:19:55;;;;;;;;;;;1.30;99.90;1.90;99541.00;;;;339873;28;82473;-89
2022/04/03 00:20:08;;;;;;;;;;;1.40;99.90;1.90;99539.00;;;;342129;28;90394;-89
2022/04/03 00:20:20;;;;;;;;;;;1.30;99.90;2.00;99540.00;;;;339784;28;82537;-89
2022/04/03 00:20:32;;;;;;;;;;;1.30;99.90;2.00;99547.00;;;;336812;28;90361;-88
2022/04/03 00:20:44;;;;;;;;;;;1.30;99.90;2.00;99543.00;;;;340641;28;83590;-89
2022/04/03 00:20:55;;;;;;;;;;;1.30;99.90;2.00;99548.00;;;;339332;28;91192;-89
2022/04/03 00:21:08;;;;;;;;;;;1.30;99.90;2.00;99543.00;;;;341096;28;82516;-89
2022/04/03 00:21:19;;;;;;;;;;;1.30;99.90;2.00;99543.00;;;;342256;28;91162;-89
2022/04/03 00:21:31;;;;;;;;;;;1.30;99.90;2.00;99541.00;;;;341380;28;82578;-90
2022/04/03 00:21:43;;;;;;;;;;;1.30;99.90;2.00;99538.00;;;;345891;28;92397;-88
2022/04/03 00:21:55;;;;;;;;;;;1.30;99.90;2.00;99536.00;;;;346845;28;83436;-89
2022/04/03 00:22:06;;;;;;;;;;;1.30;99.90;2.00;99536.00;;;;339218;28;91500;-89
2022/04/03 00:22:18;;;;;;;;;;;1.30;99.90;2.00;99534.00;;;;338350;28;82501;-89
2022/04/03 00:22:30;;;;;;;;;;;1.30;99.90;2.00;99542.00;;;;339165;28;91604;-90
2022/04/03 00:22:47;;;;;;;;;;;1.30;99.90;2.00;99535.00;;;;337870;28;83344;-90
2022/04/03 00:22:59;;;;;;;;;;;1.30;99.90;2.10;99537.00;;;;337542;28;90140;-89
2022/04/03 00:23:11;;;;;;;;;;;1.30;99.90;2.10;99541.00;;;;344846;28;82622;-89
2022/04/03 00:23:23;;;;;;;;;;;1.40;99.90;2.10;99539.00;;;;345657;28;90679;-89
2022/04/03 00:23:35;;;;;;;;;;;1.30;99.90;2.00;99541.00;;;;340467;28;83399;-89
2022/04/03 00:23:48;;;;;;;;;;;1.30;99.90;2.00;99546.00;;;;338400;28;92433;-90
2022/04/03 00:24:01;;;;;;;;;;;1.30;99.90;2.00;99533.00;;;;337796;28;83486;-89
2022/04/03 00:24:13;;;;;;;;;;;1.30;99.90;2.00;99530.00;;;;339824;28;90721;-90
2022/04/03 00:24:24;;;;;;;;;;;1.30;99.90;2.00;99528.00;;;;339261;28;83444;-90
2022/04/03 00:24:36;;;;;;;;;;;1.40;99.90;2.00;99532.00;;;;341601;28;91508;-88
2022/04/03 00:24:48;;;;;;;;;;;1.30;99.90;2.00;99528.00;;;;339151;28;82678;-89
2022/04/03 00:25:00;;;;;;;;;;;1.30;99.90;2.00;99542.00;;;;340332;28;90331;-89
2022/04/03 00:25:12;;;;;;;;;;;1.30;99.90;2.10;99535.00;;;;338159;28;82568;-90
2022/04/03 00:25:24;;;;;;;;;;;1.30;99.90;2.00;99549.00;;;;340327;28;90333;-90
2022/04/03 00:25:37;;;;;;;;;;;1.40;99.90;2.00;99534.00;;;;340676;28;82574;-90
2022/04/03 00:25:49;;;;;;;;;;;1.30;99.90;2.00;99535.00;;;;340218;28;91309;-89
2022/04/03 00:26:01;;;;;;;;;;;1.30;99.90;2.00;99542.00;;;;340701;28;83456;-89
2022/04/03 00:26:13;;;;;;;;;;;1.40;99.90;2.00;99536.00;;;;340412;28;87646;-89
2022/04/03 00:26:25;;;;;;;;;;;1.30;99.90;2.00;99527.00;;;;339466;28;83438;-89
2022/04/03 00:26:37;;;;;;;;;;;1.30;99.90;2.00;99530.00;;;;337624;28;90570;-89
2022/04/03 00:26:48;;;;;;;;;;;1.30;99.90;2.00;99529.00;;;;342178;28;82530;-89
2022/04/03 00:27:00;;;;;;;;;;;1.30;99.90;2.00;99535.00;;;;338995;28;88974;-90
2022/04/03 00:27:12;;;;;;;;;;;1.40;99.90;2.00;99534.00;;;;339448;28;82503;-89
2022/04/03 00:27:24;;;;;;;;;;;1.40;99.90;2.00;99535.00;;;;340194;28;90551;-89
2022/04/03 00:27:36;;;;;;;;;;;1.30;99.90;2.00;99531.00;;;;340408;28;83582;-90
2022/04/03 00:27:47;;;;;;;;;;;1.40;99.90;2.00;99528.00;;;;342438;28;91800;-89
2022/04/03 00:27:59;;;;;;;;;;;1.30;99.90;2.00;99533.00;;;;344210;28;83423;-90
2022/04/03 00:28:11;;;;;;;;;;;1.30;99.90;2.00;99527.00;;;;340250;28;91355;-89
2022/04/03 00:28:26;;;;;;;;;;;1.30;99.90;2.00;99531.00;;;;339388;28;83467;-89
2022/04/03 00:28:38;;;;;;;;;;;1.30;99.90;1.90;99537.00;;;;340341;28;90334;-90
2022/04/03 00:28:49;;;;;;;;;;;1.30;99.90;1.90;99535.00;;;;339342;28;83499;-89
2022/04/03 00:29:01;;;;;;;;;;;1.30;99.90;2.00;99526.00;;;;340321;28;90103;-89
2022/04/03 00:29:13;;;;;;;;;;;1.30;99.90;2.00;99538.00;;;;339301;28;83455;-89
2022/04/03 00:29:25;;;;;;;;;;;1.30;99.90;2.00;99524.00;;;;338821;28;90464;-89
2022/04/03 00:29:37;;;;;;;;;;;1.30;99.90;2.00;99528.00;;;;337885;28;83408;-89
2022/04/03 00:29:49;;;;;;;;;;;1.30;99.90;2.00;99530.00;;;;338326;28;92827;-89
2022/04/03 00:30:00;;;;;;;;;;;1.30;99.90;2.00;99530.00;;;;341855;28;83479;-89
2022/04/03 00:30:12;;;;;;;;;;;1.30;99.90;2.00;99528.00;;;;338723;28;90464;-90
2022/04/03 00:30:24;;;;;;;;;;;1.30;99.90;2.00;99531.00;;;;339221;28;82489;-89
2022/04/03 00:30:36;;;;;;;;;;;1.30;99.90;2.00;99534.00;;;;343822;27;91284;-89
2022/04/03 00:30:48;;;;;;;;;;;1.30;99.90;1.90;99530.00;;;;343590;28;82564;-89
2022/04/03 00:31:00;;;;;;;;;;;1.30;99.90;1.90;99540.00;;;;345732;28;90130;-89
2022/04/03 00:31:14;;;;;;;;;;;1.30;99.90;1.90;99538.00;;;;344834;28;83241;-89
2022/04/03 00:31:26;;;;;;;;;;;1.30;99.90;2.00;99542.00;;;;347106;27;91366;-90
2022/04/03 00:31:38;;;;;;;;;;;1.30;99.90;2.00;99530.00;;;;341913;28;83659;-89
2022/04/03 00:31:50;;;;;;;;;;;1.30;99.90;1.90;99524.00;;;;338761;28;90052;-88
2022/04/03 00:32:02;;;;;;;;;;;1.30;99.90;2.00;99533.00;;;;340393;28;83534;-89
2022/04/03 00:32:14;;;;;;;;;;;1.30;99.90;2.00;99535.00;;;;338720;28;90759;-89
2022/04/03 00:32:26;;;;;;;;;;;1.30;99.90;2.00;99530.00;;;;339296;28;82485;-89
2022/04/03 00:32:38;;;;;;;;;;;1.30;99.90;2.00;99531.00;;;;338735;28;90098;-89
2022/04/03 00:32:50;;;;;;;;;;;1.30;99.90;1.90;99530.00;;;;339214;28;83516;-89
2022/04/03 00:33:02;;;;;;;;;;;1.30;99.90;2.00;99534.00;;;;337447;28;91703;-89
2022/04/03 00:33:14;;;;;;;;;;;1.30;99.90;2.00;99535.00;;;;340453;28;83521;-90
2022/04/03 00:33:25;;;;;;;;;;;1.30;99.90;2.00;99529.00;;;;338563;28;91170;-89
2022/04/03 00:33:38;;;;;;;;;;;1.30;99.90;2.00;99516.00;;;;338777;28;83592;-89
2022/04/03 00:33:50;;;;;;;;;;;1.30;99.90;2.00;99533.00;;;;337296;28;90196;-89
2022/04/03 00:34:02;;;;;;;;;;;1.30;99.90;2.00;99533.00;;;;341207;28;83367;-89
2022/04/03 00:34:14;;;;;;;;;;;1.30;99.90;2.00;99528.00;;;;338745;28;91787;-89
2022/04/03 00:34:25;;;;;;;;;;;1.30;99.90;2.00;99528.00;;;;340591;28;83380;-89
2022/04/03 00:34:37;;;;;;;;;;;1.30;99.90;2.00;99537.00;;;;338801;28;91524;-89
2022/04/03 00:34:49;;;;;;;;;;;1.30;99.90;2.00;99524.00;;;;340583;28;82526;-89
2022/04/03 00:35:02;;;;;;;;;;;1.30;99.90;2.00;99528.00;;;;337511;28;90246;-89
2022/04/03 00:35:15;;;;;;;;;;;1.30;99.90;1.90;99540.00;;;;335299;29;82556;-89
2022/04/03 00:35:27;;;;;;;;;;;1.30;99.90;1.90;99541.00;;;;338616;28;89383;-90
2022/04/03 00:35:39;;;;;;;;;;;1.30;99.90;2.00;99531.00;;;;339196;28;83435;-89
2022/04/03 00:35:51;;;;;;;;;;;1.30;99.90;2.00;99523.00;;;;338688;28;92378;-89
2022/04/03 00:36:03;;;;;;;;;;;1.30;99.90;2.00;99541.00;;;;339143;28;82514;-89
2022/04/03 00:36:15;;;;;;;;;;;1.30;99.90;1.90;99540.00;;;;338856;28;89565;-89
2022/04/03 00:36:27;;;;;;;;;;;1.30;99.90;2.00;99528.00;;;;341843;28;83383;-89
2022/04/03 00:36:39;;;;;;;;;;;1.30;99.90;2.00;99530.00;;;;344373;27;91734;-89
2022/04/03 00:36:53;;;;;;;;;;;1.30;99.90;2.00;99535.00;;;;340059;28;82457;-89
2022/04/03 00:37:05;;;;;;;;;;;1.30;99.90;2.00;99532.00;;;;337158;28;90400;-88
2022/04/03 00:37:17;;;;;;;;;;;1.30;99.90;1.90;99521.00;;;;338807;28;83470;-89
2022/04/03 00:37:29;;;;;;;;;;;1.30;99.90;2.00;99536.00;;;;338848;28;91567;-89
2022/04/03 00:37:41;;;;;;;;;;;1.30;99.90;2.00;99533.00;;;;339126;28;82550;-89
2022/04/03 00:37:52;;;;;;;;;;;1.30;99.90;2.00;99534.00;;;;336119;28;91237;-89
2022/04/03 00:38:04;;;;;;;;;;;1.30;99.90;2.00;99544.00;;;;337752;28;82593;-89
2022/04/03 00:38:17;;;;;;;;;;;1.30;99.90;2.00;99524.00;;;;340119;28;90186;-89
2022/04/03 00:38:29;;;;;;;;;;;1.30;99.90;2.00;99526.00;;;;339277;28;82477;-89
2022/04/03 00:38:41;;;;;;;;;;;1.30;99.90;2.00;99524.00;;;;338699;28;91630;-89
2022/04/03 00:38:53;;;;;;;;;;;1.30;99.90;2.00;99534.00;;;;339207;28;82527;-89
2022/04/03 00:39:05;;;;;;;;;;;1.30;99.90;2.00;99522.00;;;;337507;28;90561;-89
2022/04/03 00:39:17;;;;;;;;;;;1.30;99.90;2.00;99528.00;;;;339191;28;83423;-89
2022/04/03 00:39:28;;;;;;;;;;;1.30;99.90;2.00;99538.00;;;;337285;28;90823;-89
2022/04/03 00:39:40;;;;;;;;;;;1.30;99.90;2.00;99520.00;;;;340311;28;83552;-89
2022/04/03 00:39:52;;;;;;;;;;;1.30;99.90;2.00;99527.00;;;;344091;28;94772;-89
2022/04/03 00:40:04;;;;;;;;;;;1.30;99.90;2.00;99528.00;;;;343449;27;82625;-89
2022/04/03 00:40:17;;;;;;;;;;;1.30;99.90;2.00;99529.00;;;;337403;28;90207;-89
2022/04/03 00:40:29;;;;;;;;;;;1.30;99.90;1.90;99524.00;;;;337904;28;83354;-89
2022/04/03 00:40:44;;;;;;;;;;;1.30;99.90;1.90;99534.00;;;;337390;28;91447;-89
2022/04/03 00:40:56;;;;;;;;;;;1.30;99.90;2.00;99528.00;;;;340643;28;83324;-89
2022/04/03 00:41:07;;;;;;;;;;;1.30;99.90;2.00;99526.00;;;;338855;28;91397;-89
2022/04/03 00:41:22;;;;;;;;;;;1.30;99.90;2.00;99522.00;;;;339179;28;83490;-89
2022/04/03 00:41:34;;;;;;;;;;;1.30;99.90;2.00;99532.00;;;;337482;28;91486;-89
2022/04/03 00:41:46;;;;;;;;;;;1.30;99.90;2.00;99529.00;;;;337892;28;83368;-90
2022/04/03 00:41:58;;;;;;;;;;;1.30;99.90;2.00;99528.00;;;;337328;28;91330;-88
2022/04/03 00:42:09;;;;;;;;;;;1.30;99.90;2.00;99525.00;;;;340605;28;83427;-89
2022/04/03 00:42:21;;;;;;;;;;;1.30;99.90;2.00;99528.00;;;;337464;28;90373;-89
2022/04/03 00:42:34;;;;;;;;;;;1.30;99.90;2.00;99516.00;;;;339394;28;84550;-89
2022/04/03 00:42:46;;;;;;;;;;;1.40;99.90;2.00;99525.00;;;;339210;28;90316;-90
2022/04/03 00:42:58;;;;;;;;;;;1.30;99.90;2.00;99525.00;;;;340473;28;83393;-89
2022/04/03 00:43:11;;;;;;;;;;;1.30;99.90;1.90;99522.00;;;;338821;28;90369;-89
2022/04/03 00:43:22;;;;;;;;;;;1.30;99.90;1.90;99522.00;;;;339029;28;83361;-89
2022/04/03 00:43:34;;;;;;;;;;;1.30;99.90;2.00;99526.00;;;;340560;28;90509;-90
2022/04/03 00:43:46;;;;;;;;;;;1.30;99.90;2.00;99534.00;;;;339183;28;83495;-89
2022/04/03 00:43:59;;;;;;;;;;;1.30;99.90;2.00;99534.00;;;;338627;28;92889;-89
2022/04/03 00:44:11;;;;;;;;;;;1.30;99.90;2.00;99527.00;;;;340532;28;83333;-89
2022/04/03 00:44:23;;;;;;;;;;;1.30;99.90;2.00;99527.00;;;;337386;28;90502;-90
2022/04/03 00:44:35;;;;;;;;;;;1.30;99.90;2.00;99529.00;;;;339141;28;83373;-89
2022/04/03 00:44:47;;;;;;;;;;;1.30;99.90;2.00;99527.00;;;;338790;28;91370;-89
2022/04/03 00:44:59;;;;;;;;;;;1.30;99.90;2.00;99530.00;;;;335296;28;83193;-89
2022/04/03 00:45:11;;;;;;;;;;;1.30;99.90;2.00;99523.00;;;;338851;28;88674;-90
2022/04/03 00:45:23;;;;;;;;;;;1.30;99.90;2.00;99527.00;;;;340428;28;83539;-89
2022/04/03 00:45:35;;;;;;;;;;;1.30;99.90;2.00;99525.00;;;;339603;28;91334;-89
2022/04/03 00:45:47;;;;;;;;;;;1.30;99.90;2.00;99517.00;;;;344056;28;83488;-89
2022/04/03 00:46:00;;;;;;;;;;;1.30;99.90;2.00;99523.00;;;;337384;28;92589;-89
2022/04/03 00:46:12;;;;;;;;;;;1.30;99.90;2.00;99519.00;;;;338999;28;83552;-89
2022/04/03 00:46:24;;;;;;;;;;;1.30;99.90;2.00;99527.00;;;;338787;28;88229;-89
2022/04/03 00:46:36;;;;;;;;;;;1.30;99.90;2.00;99537.00;;;;340461;28;83612;-89
2022/04/03 00:46:48;;;;;;;;;;;1.30;99.90;2.00;99526.00;;;;344300;28;91350;-90
2022/04/03 00:47:01;;;;;;;;;;;1.30;99.90;2.00;99531.00;;;;339154;28;83422;-89
2022/04/03 00:47:13;;;;;;;;;;;1.30;99.90;2.00;99526.00;;;;340165;28;91278;-89
2022/04/03 00:47:25;;;;;;;;;;;1.30;99.90;2.00;99528.00;;;;340600;28;82591;-89
2022/04/03 00:47:37;;;;;;;;;;;1.30;99.90;2.00;99528.00;;;;337462;28;91515;-89
2022/04/03 00:47:51;;;;;;;;;;;1.30;99.90;2.00;99523.00;;;;339297;28;82487;-89
2022/04/03 00:48:03;;;;;;;;;;;1.30;99.90;2.00;99523.00;;;;339960;28;92408;-90
2022/04/03 00:48:14;;;;;;;;;;;1.30;99.90;2.00;99526.00;;;;339287;28;83426;-89
2022/04/03 00:48:27;;;;;;;;;;;1.30;99.90;2.00;99525.00;;;;337492;28;90516;-89
2022/04/03 00:48:39;;;;;;;;;;;1.40;99.90;2.00;99524.00;;;;341385;28;82649;-89
2022/04/03 00:48:52;;;;;;;;;;;1.40;99.90;2.00;99520.00;;;;339736;28;91384;-90
2022/04/03 00:49:03;;;;;;;;;;;1.30;99.90;2.00;99528.00;;;;339770;28;82672;-89
2022/04/03 00:49:16;;;;;;;;;;;1.30;99.90;2.00;99531.00;;;;338788;28;90789;-89
2022/04/03 00:49:28;;;;;;;;;;;1.30;99.90;2.00;99519.00;;;;339146;28;82563;-89
2022/04/03 00:49:39;;;;;;;;;;;1.30;99.90;2.00;99527.00;;;;337422;28;89248;-90
2022/04/03 00:49:51;;;;;;;;;;;1.30;99.90;2.00;99518.00;;;;339255;28;83415;-89
2022/04/03 00:50:03;;;;;;;;;;;1.30;99.90;2.00;99528.00;;;;338366;28;91201;-89
2022/04/03 00:50:15;;;;;;;;;;;1.40;99.90;2.00;99525.00;;;;337880;28;83547;-89
2022/04/03 00:50:27;;;;;;;;;;;1.40;99.90;2.00;99516.00;;;;340098;28;91881;-89
2022/04/03 00:50:39;;;;;;;;;;;1.40;99.90;2.00;99525.00;;;;340520;28;82407;-89
2022/04/03 00:50:51;;;;;;;;;;;1.40;99.90;2.00;99533.00;;;;342832;28;92044;-89
2022/04/03 00:51:03;;;;;;;;;;;1.40;99.90;2.00;99517.00;;;;340443;28;83444;-89
2022/04/03 00:51:14;;;;;;;;;;;1.30;99.90;2.00;99516.00;;;;338716;28;91395;-89
2022/04/03 00:51:27;;;;;;;;;;;1.30;99.90;2.00;99518.00;;;;340441;28;83445;-90
2022/04/03 00:51:39;;;;;;;;;;;1.30;99.90;2.00;99524.00;;;;341049;28;89564;-89
2022/04/03 00:51:51;;;;;;;;;;;1.30;99.90;2.00;99524.00;;;;346448;28;82564;-89
2022/04/03 00:52:03;;;;;;;;;;;1.30;99.90;2.00;99534.00;;;;342418;28;92792;-89
2022/04/03 00:52:15;;;;;;;;;;;1.30;99.90;2.00;99524.00;;;;339168;28;83397;-90
2022/04/03 00:52:27;;;;;;;;;;;1.30;99.90;2.00;99516.00;;;;340140;28;90386;-89
2022/04/03 00:52:38;;;;;;;;;;;1.30;99.90;2.00;99525.00;;;;340237;28;82508;-89
2022/04/03 00:52:50;;;;;;;;;;;1.30;99.90;2.00;99517.00;;;;337443;28;91722;-89
2022/04/03 00:53:02;;;;;;;;;;;1.30;99.90;2.00;99518.00;;;;340544;28;82570;-89
2022/04/03 00:53:14;;;;;;;;;;;1.30;99.90;2.00;99514.00;;;;340108;28;91501;-89
2022/04/03 00:53:26;;;;;;;;;;;1.30;99.90;2.00;99521.00;;;;340387;28;82540;-89
2022/04/03 00:53:38;;;;;;;;;;;1.40;99.90;2.00;99517.00;;;;339899;28;91090;-89
2022/04/03 00:53:50;;;;;;;;;;;1.30;99.90;2.00;99521.00;;;;340546;28;82369;-89
2022/04/03 00:54:02;;;;;;;;;;;1.30;99.90;2.00;99525.00;;;;338635;28;91177;-89
2022/04/03 00:54:14;;;;;;;;;;;1.30;99.90;2.00;99520.00;;;;337895;28;83488;-89
2022/04/03 00:54:25;;;;;;;;;;;1.40;99.90;2.00;99523.00;;;;336115;28;91574;-88
2022/04/03 00:54:37;;;;;;;;;;;1.40;99.90;2.00;99523.00;;;;342896;28;83608;-89
2022/04/03 00:54:49;;;;;;;;;;;1.40;99.90;2.00;99519.00;;;;344822;28;89726;-89
2022/04/03 00:55:02;;;;;;;;;;;1.30;99.90;2.00;99505.00;;;;346188;28;83835;-89
2022/04/03 00:55:14;;;;;;;;;;;1.30;99.90;2.00;99509.00;;;;345743;28;91203;-90
2022/04/03 00:55:25;;;;;;;;;;;1.40;99.90;2.00;99516.00;;;;344822;28;82693;-89
2022/04/03 00:55:41;;;;;;;;;;;1.30;99.90;2.00;99512.00;;;;337926;28;91575;-89
2022/04/03 00:55:53;;;;;;;;;;;1.30;99.90;2.00;99510.00;;;;339247;28;82440;-88
2022/04/03 00:56:05;;;;;;;;;;;1.40;99.90;2.00;99509.00;;;;338697;28;91986;-89
2022/04/03 00:56:17;;;;;;;;;;;1.30;99.90;2.00;99527.00;;;;339205;28;83375;-89
2022/04/03 00:56:30;;;;;;;;;;;1.40;99.90;2.00;99520.00;;;;338769;28;91703;-89
2022/04/03 00:56:42;;;;;;;;;;;1.40;99.90;2.10;99528.00;;;;340461;28;83355;-89
2022/04/03 00:56:55;;;;;;;;;;;1.40;99.90;2.00;99520.00;;;;338800;28;91504;-89
2022/04/03 00:57:07;;;;;;;;;;;1.30;99.90;2.00;99515.00;;;;337918;28;83433;-89
2022/04/03 00:57:19;;;;;;;;;;;1.40;99.90;2.00;99512.00;;;;338672;28;90611;-89
2022/04/03 00:57:31;;;;;;;;;;;1.40;99.90;2.00;99517.00;;;;338118;28;83467;-89
2022/04/03 00:57:43;;;;;;;;;;;1.30;99.90;2.00;99521.00;;;;343041;28;88466;-89
2022/04/03 00:57:57;;;;;;;;;;;1.30;99.90;2.00;99510.00;;;;336616;28;82518;-89
2022/04/03 00:58:11;;;;;;;;;;;1.30;99.90;2.10;99522.00;;;;338564;28;92497;-88
2022/04/03 00:58:23;;;;;;;;;;;1.40;99.90;2.10;99518.00;;;;338965;28;83430;-89
2022/04/03 00:58:37;;;;;;;;;;;1.40;99.90;2.10;99518.00;;;;339276;28;91593;-89
2022/04/03 00:58:49;;;;;;;;;;;1.40;99.90;2.10;99518.00;;;;340533;28;83460;-89
2022/04/03 00:59:01;;;;;;;;;;;1.40;99.90;2.00;99514.00;;;;338757;28;90123;-89
2022/04/03 00:59:13;;;;;;;;;;;1.40;99.90;2.00;99518.00;;;;339240;28;83478;-90
2022/04/03 00:59:25;;;;;;;;;;;1.40;99.90;2.00;99516.00;;;;338670;28;89545;-90
2022/04/03 00:59:36;;;;;;;;;;;1.30;99.90;2.00;99516.00;;;;340454;28;83494;-89
2022/04/03 00:59:49;;;;;;;;;;;1.40;99.90;2.00;99514.00;;;;340205;28;88126;-89
2022/04/03 01:00:01;;;;;;;;;;;1.40;99.90;2.10;99517.00;;;;339149;28;82504;-89
2022/04/03 01:00:13;;;;;;;;;;;1.40;99.90;2.10;99521.00;;;;339952;28;91357;-90
2022/04/03 01:00:25;;;;;;;;;;;1.40;99.90;2.10;99516.00;;;;340606;28;83032;-89
2022/04/03 01:00:37;;;;;;;;;;;1.40;99.90;2.10;99523.00;;;;340426;28;91320;-89
2022/04/03 01:00:49;;;;;;;;;;;1.40;99.90;2.10;99513.00;;;;346100;28;83545;-89
2022/04/03 01:01:01;;;;;;;;;;;1.40;99.90;2.10;99512.00;;;;344275;28;91745;-89
2022/04/03 01:01:13;;;;;;;;;;;1.40;99.90;2.10;99518.00;;;;340614;28;82469;-89
2022/04/03 01:01:25;;;;;;;;;;;1.40;99.90;2.10;99516.00;;;;338792;28;89291;-89
2022/04/03 01:01:40;;;;;;;;;;;1.40;99.90;2.00;99521.00;;;;340486;28;82681;-89
2022/04/03 01:01:52;;;;;;;;;;;1.40;99.90;2.00;99523.00;;;;339984;28;91388;-89